Погода Межно 2на 2 недели

Витебская область, Белоруссия

23 мая-05 июня
  • 23мая
    Сегодня
    +11°
    +25°
    Практически безоблачно
    ВремяПогодаТемператураВлажностьДавлениеВетер, м/сВероятность осадков
    00:00Небольшая облачность+15°C94 %755 мм1.3 м/с9 %
    03:00Ясно и безоблачно+14°C93 %755 мм1.4 м/с2 %
    06:00Ясно и безоблачно+14°C93 %756 мм1.7 м/с2 %
    09:00Ясно и безоблачно+19°C75 %757 мм2.6 м/с2 %
    12:00Ясно и безоблачно+23°C54 %757 мм3.2 м/с2 %
    15:00Практически безоблачно+25°C48 %757 мм3.3 м/с2 %
    18:00Небольшая облачность+24°C46 %757 мм3.1 м/с6 %
    21:00Практически безоблачно+20°C53 %758 мм2.3 м/с2 %
  • 24мая
    Пятница
    +10°
    +23°
    Ясно и безоблачно
    ВремяПогодаТемператураВлажностьДавлениеВетер, м/сВероятность осадков
    00:00Ясно и безоблачно+16°C56 %759 мм2.0 м/с2 %
    03:00Ясно и безоблачно+13°C61 %760 мм1.8 м/с2 %
    06:00Ясно и безоблачно+12°C66 %761 мм1.9 м/с2 %
    09:00Ясно и безоблачно+17°C57 %761 мм2.6 м/с2 %
    12:00Практически безоблачно+21°C47 %762 мм2.9 м/с2 %
    15:00Ясно и безоблачно+22°C42 %761 мм2.8 м/с2 %
    18:00Ясно и безоблачно+22°C42 %760 мм2.8 м/с2 %
    21:00Ясно и безоблачно+18°C58 %760 мм1.7 м/с2 %
  • 25мая
    Суббота
    +11°
    +25°
    Небольшая облачность
    ВремяПогодаТемператураВлажностьДавлениеВетер, м/сВероятность осадков
    00:00Ясно и безоблачно+14°C60 %760 мм1.3 м/с2 %
    03:00Ясно и безоблачно+12°C69 %760 мм1.0 м/с2 %
    06:00Ясно и безоблачно+11°C74 %760 мм1.3 м/с2 %
    09:00Практически безоблачно+17°C64 %760 мм1.9 м/с2 %
    12:00Небольшая облачность+22°C50 %760 мм2.3 м/с2 %
    15:00Небольшая облачность+24°C44 %759 мм2.1 м/с2 %
    18:00Ясно и безоблачно+24°C44 %758 мм2.1 м/с3 %
    21:00Ясно и безоблачно+19°C64 %758 мм1.3 м/с2 %
  • 26мая
    Воскресенье
    +13°
    +26°
    Ясно и безоблачно
    ВремяПогодаТемператураВлажностьДавлениеВетер, м/сВероятность осадков
    00:00Ясно и безоблачно+15°C73 %758 мм0.9 м/с2 %
    03:00Ясно и безоблачно+13°C81 %758 мм0.7 м/с2 %
    06:00Ясно и безоблачно+13°C81 %759 мм0.7 м/с2 %
    09:00Ясно и безоблачно+19°C59 %759 мм0.9 м/с2 %
    12:00Ясно и безоблачно+24°C41 %759 мм1.1 м/с2 %
    15:00Ясно и безоблачно+25°C39 %759 мм1.0 м/с2 %
    18:00Облачно с прояснениями+25°C38 %758 мм1.2 м/с2 %
    21:00Практически безоблачно+20°C64 %758 мм1.1 м/с2 %
  • 27мая
    Понедельник
    +14°
    +26°
    Практически безоблачно
    ВремяПогодаТемператураВлажностьДавлениеВетер, м/сВероятность осадков
    00:00Ясно и безоблачно+15°C73 %758 мм0.5 м/с2 %
    03:00Небольшая облачность+13°C75 %759 мм0.5 м/с2 %
    06:00Ясно и безоблачно+14°C79 %759 мм0.6 м/с2 %
    09:00Ясно и безоблачно+21°C62 %759 мм0.7 м/с2 %
    12:00Ясно и безоблачно+25°C50 %759 мм1.4 м/с18 %
    15:00Практически безоблачно+26°C48 %759 мм1.7 м/с20 %
    18:00Облачно с прояснениями+26°C57 %759 мм1.6 м/с25 %
    21:00Практически безоблачно+21°C82 %758 мм0.8 м/с13 %
Мы используем cookies
Соглашаюсь